METAR Data
IDs: Format: Raw Decoded Include TAF

Data at: 1352 UTC 26 Feb 2021

EHFS 261325Z AUTO 33009KT 280V020 9999 NCD 09/04 Q1036